sensor_id;sensor_type;location;lat;lon;timestamp;P1;durP1;ratioP1;P2;durP2;ratioP2
29362;SDS011;16349;53.672;10.014;2022-12-20T00:01:24;9.93;;;6.67;;
29362;SDS011;16349;53.672;10.014;2022-12-20T00:03:53;11.37;;;7.10;;
29362;SDS011;16349;53.672;10.014;2022-12-20T00:06:22;9.07;;;6.67;;
29362;SDS011;16349;53.672;10.014;2022-12-20T00:08:52;9.90;;;6.70;;
29362;SDS011;16349;53.672;10.014;2022-12-20T00:11:21;7.80;;;6.90;;
29362;SDS011;16349;53.672;10.014;2022-12-20T00:13:49;7.57;;;6.60;;
29362;SDS011;16349;53.672;10.014;2022-12-20T00:16:16;8.17;;;6.27;;
29362;SDS011;16349;53.672;10.014;2022-12-20T00:18:44;9.40;;;6.50;;
29362;SDS011;16349;53.672;10.014;2022-12-20T00:21:12;7.27;;;6.03;;
29362;SDS011;16349;53.672;10.014;2022-12-20T00:23:40;12.97;;;7.43;;
29362;SDS011;16349;53.672;10.014;2022-12-20T00:26:07;6.57;;;5.83;;
29362;SDS011;16349;53.672;10.014;2022-12-20T00:28:38;10.63;;;6.57;;
29362;SDS011;16349;53.672;10.014;2022-12-20T00:31:06;8.20;;;6.40;;
29362;SDS011;16349;53.672;10.014;2022-12-20T00:33:35;7.37;;;6.20;;
29362;SDS011;16349;53.672;10.014;2022-12-20T00:36:04;7.87;;;5.93;;
29362;SDS011;16349;53.672;10.014;2022-12-20T00:38:32;9.67;;;6.63;;
29362;SDS011;16349;53.672;10.014;2022-12-20T00:41:00;8.13;;;6.50;;
29362;SDS011;16349;53.672;10.014;2022-12-20T00:43:28;10.00;;;6.77;;
29362;SDS011;16349;53.672;10.014;2022-12-20T00:45:58;10.57;;;6.73;;
29362;SDS011;16349;53.672;10.014;2022-12-20T00:48:25;7.27;;;5.87;;
29362;SDS011;16349;53.672;10.014;2022-12-20T00:50:56;8.97;;;6.03;;
29362;SDS011;16349;53.672;10.014;2022-12-20T00:53:24;7.13;;;6.20;;
29362;SDS011;16349;53.672;10.014;2022-12-20T00:55:51;10.33;;;6.27;;
29362;SDS011;16349;53.672;10.014;2022-12-20T00:58:18;9.37;;;6.23;;
29362;SDS011;16349;53.672;10.014;2022-12-20T01:00:46;9.27;;;6.67;;
29362;SDS011;16349;53.672;10.014;2022-12-20T01:03:14;6.47;;;5.43;;
29362;SDS011;16349;53.672;10.014;2022-12-20T01:05:48;7.63;;;6.37;;
29362;SDS011;16349;53.672;10.014;2022-12-20T01:08:17;8.83;;;5.90;;
29362;SDS011;16349;53.672;10.014;2022-12-20T01:10:44;8.90;;;6.10;;
29362;SDS011;16349;53.672;10.014;2022-12-20T01:13:11;10.03;;;6.37;;
29362;SDS011;16349;53.672;10.014;2022-12-20T01:15:38;9.63;;;6.83;;
29362;SDS011;16349;53.672;10.014;2022-12-20T01:18:05;7.70;;;6.27;;
29362;SDS011;16349;53.672;10.014;2022-12-20T01:20:33;7.80;;;6.20;;
29362;SDS011;16349;53.672;10.014;2022-12-20T01:23:00;7.83;;;6.03;;
29362;SDS011;16349;53.672;10.014;2022-12-20T01:25:27;8.90;;;6.70;;
29362;SDS011;16349;53.672;10.014;2022-12-20T01:27:54;7.83;;;6.10;;
29362;SDS011;16349;53.672;10.014;2022-12-20T01:30:21;9.83;;;6.67;;
29362;SDS011;16349;53.672;10.014;2022-12-20T01:32:48;9.93;;;6.23;;
29362;SDS011;16349;53.672;10.014;2022-12-20T01:35:15;8.33;;;6.17;;
29362;SDS011;16349;53.672;10.014;2022-12-20T01:37:43;6.70;;;5.93;;
29362;SDS011;16349;53.672;10.014;2022-12-20T01:40:10;7.63;;;6.13;;
29362;SDS011;16349;53.672;10.014;2022-12-20T01:42:37;10.13;;;6.20;;
29362;SDS011;16349;53.672;10.014;2022-12-20T01:45:06;8.40;;;6.27;;
29362;SDS011;16349;53.672;10.014;2022-12-20T01:47:38;8.67;;;6.70;;
29362;SDS011;16349;53.672;10.014;2022-12-20T01:50:06;10.10;;;6.30;;
29362;SDS011;16349;53.672;10.014;2022-12-20T01:52:34;8.23;;;5.90;;
29362;SDS011;16349;53.672;10.014;2022-12-20T01:55:08;6.20;;;5.60;;
29362;SDS011;16349;53.672;10.014;2022-12-20T01:57:39;6.60;;;5.90;;
29362;SDS011;16349;53.672;10.014;2022-12-20T02:00:11;8.03;;;6.43;;
29362;SDS011;16349;53.672;10.014;2022-12-20T02:02:39;7.03;;;6.03;;
29362;SDS011;16349;53.672;10.014;2022-12-20T02:05:07;8.13;;;6.43;;
29362;SDS011;16349;53.672;10.014;2022-12-20T02:07:34;6.83;;;5.83;;
29362;SDS011;16349;53.672;10.014;2022-12-20T02:10:03;9.83;;;5.87;;
29362;SDS011;16349;53.672;10.014;2022-12-20T02:12:35;11.07;;;6.00;;
29362;SDS011;16349;53.672;10.014;2022-12-20T02:18:06;9.83;;;5.73;;
29362;SDS011;16349;53.672;10.014;2022-12-20T02:20:51;7.53;;;5.67;;
29362;SDS011;16349;53.672;10.014;2022-12-20T02:23:32;7.93;;;5.90;;
29362;SDS011;16349;53.672;10.014;2022-12-20T02:26:14;8.03;;;5.87;;
29362;SDS011;16349;53.672;10.014;2022-12-20T02:29:05;7.47;;;5.50;;
29362;SDS011;16349;53.672;10.014;2022-12-20T02:31:43;8.53;;;5.77;;
29362;SDS011;16349;53.672;10.014;2022-12-20T02:34:17;6.83;;;5.77;;
29362;SDS011;16349;53.672;10.014;2022-12-20T02:36:46;8.13;;;6.13;;
29362;SDS011;16349;53.672;10.014;2022-12-20T02:39:13;6.00;;;5.40;;
29362;SDS011;16349;53.672;10.014;2022-12-20T02:41:42;10.73;;;5.87;;
29362;SDS011;16349;53.672;10.014;2022-12-20T02:44:13;7.07;;;5.17;;
29362;SDS011;16349;53.672;10.014;2022-12-20T02:47:00;9.27;;;5.47;;
29362;SDS011;16349;53.672;10.014;2022-12-20T02:49:31;7.37;;;5.83;;
29362;SDS011;16349;53.672;10.014;2022-12-20T02:52:03;5.63;;;5.10;;
29362;SDS011;16349;53.672;10.014;2022-12-20T02:54:31;6.23;;;5.63;;
29362;SDS011;16349;53.672;10.014;2022-12-20T02:56:59;6.77;;;5.17;;
29362;SDS011;16349;53.672;10.014;2022-12-20T02:59:31;8.40;;;5.60;;
29362;SDS011;16349;53.672;10.014;2022-12-20T03:02:04;8.83;;;5.50;;
29362;SDS011;16349;53.672;10.014;2022-12-20T03:04:51;8.93;;;5.47;;
29362;SDS011;16349;53.672;10.014;2022-12-20T03:07:20;6.70;;;5.60;;
29362;SDS011;16349;53.672;10.014;2022-12-20T03:09:47;5.70;;;5.10;;
29362;SDS011;16349;53.672;10.014;2022-12-20T03:12:14;7.03;;;5.43;;
29362;SDS011;16349;53.672;10.014;2022-12-20T03:14:41;7.20;;;5.17;;
29362;SDS011;16349;53.672;10.014;2022-12-20T03:17:11;6.90;;;5.20;;
29362;SDS011;16349;53.672;10.014;2022-12-20T03:19:39;6.93;;;5.37;;
29362;SDS011;16349;53.672;10.014;2022-12-20T03:22:06;6.03;;;5.07;;
29362;SDS011;16349;53.672;10.014;2022-12-20T03:24:33;6.13;;;5.33;;
29362;SDS011;16349;53.672;10.014;2022-12-20T03:27:04;8.43;;;6.33;;
29362;SDS011;16349;53.672;10.014;2022-12-20T03:29:31;6.07;;;5.03;;
29362;SDS011;16349;53.672;10.014;2022-12-20T03:31:59;6.27;;;5.43;;
29362;SDS011;16349;53.672;10.014;2022-12-20T03:34:27;6.83;;;4.73;;
29362;SDS011;16349;53.672;10.014;2022-12-20T03:36:54;6.80;;;5.20;;
29362;SDS011;16349;53.672;10.014;2022-12-20T03:39:21;6.50;;;5.10;;
29362;SDS011;16349;53.672;10.014;2022-12-20T03:41:49;5.70;;;5.07;;
29362;SDS011;16349;53.672;10.014;2022-12-20T03:44:17;5.33;;;4.83;;
29362;SDS011;16349;53.672;10.014;2022-12-20T03:46:44;5.67;;;4.90;;
29362;SDS011;16349;53.672;10.014;2022-12-20T03:49:11;5.80;;;5.20;;
29362;SDS011;16349;53.672;10.014;2022-12-20T03:51:45;6.33;;;5.20;;
29362;SDS011;16349;53.672;10.014;2022-12-20T03:54:12;5.27;;;4.77;;
29362;SDS011;16349;53.672;10.014;2022-12-20T03:57:01;6.27;;;4.77;;
29362;SDS011;16349;53.672;10.014;2022-12-20T03:59:29;4.80;;;4.40;;
29362;SDS011;16349;53.672;10.014;2022-12-20T04:01:56;6.27;;;5.30;;
29362;SDS011;16349;53.672;10.014;2022-12-20T04:04:25;7.57;;;5.40;;
29362;SDS011;16349;53.672;10.014;2022-12-20T04:06:54;6.03;;;4.90;;
29362;SDS011;16349;53.672;10.014;2022-12-20T04:09:21;7.60;;;4.57;;
29362;SDS011;16349;53.672;10.014;2022-12-20T04:11:54;5.57;;;4.93;;
29362;SDS011;16349;53.672;10.014;2022-12-20T04:14:22;7.67;;;5.00;;
29362;SDS011;16349;53.672;10.014;2022-12-20T04:16:49;5.67;;;4.90;;
29362;SDS011;16349;53.672;10.014;2022-12-20T04:19:17;8.13;;;4.87;;
29362;SDS011;16349;53.672;10.014;2022-12-20T04:21:45;6.23;;;4.70;;
29362;SDS011;16349;53.672;10.014;2022-12-20T04:24:15;6.73;;;4.97;;
29362;SDS011;16349;53.672;10.014;2022-12-20T04:27:09;7.10;;;4.40;;
29362;SDS011;16349;53.672;10.014;2022-12-20T04:29:36;7.07;;;4.43;;
29362;SDS011;16349;53.672;10.014;2022-12-20T04:32:05;6.07;;;4.37;;
29362;SDS011;16349;53.672;10.014;2022-12-20T04:34:32;7.17;;;5.07;;
29362;SDS011;16349;53.672;10.014;2022-12-20T04:36:59;6.00;;;4.97;;
29362;SDS011;16349;53.672;10.014;2022-12-20T04:39:38;9.50;;;5.97;;
29362;SDS011;16349;53.672;10.014;2022-12-20T04:42:21;5.73;;;4.43;;
29362;SDS011;16349;53.672;10.014;2022-12-20T04:44:49;6.73;;;5.63;;
29362;SDS011;16349;53.672;10.014;2022-12-20T04:47:21;7.07;;;6.00;;
29362;SDS011;16349;53.672;10.014;2022-12-20T04:49:49;7.13;;;5.40;;
29362;SDS011;16349;53.672;10.014;2022-12-20T04:52:16;5.67;;;4.30;;
29362;SDS011;16349;53.672;10.014;2022-12-20T04:55:02;5.27;;;4.30;;
29362;SDS011;16349;53.672;10.014;2022-12-20T04:57:32;7.13;;;4.23;;
29362;SDS011;16349;53.672;10.014;2022-12-20T04:59:59;6.57;;;4.30;;
29362;SDS011;16349;53.672;10.014;2022-12-20T05:02:27;7.50;;;5.40;;
29362;SDS011;16349;53.672;10.014;2022-12-20T05:05:00;7.37;;;4.93;;
29362;SDS011;16349;53.672;10.014;2022-12-20T05:07:33;7.43;;;5.37;;
29362;SDS011;16349;53.672;10.014;2022-12-20T05:10:02;5.17;;;4.67;;
29362;SDS011;16349;53.672;10.014;2022-12-20T05:12:29;6.77;;;5.00;;
29362;SDS011;16349;53.672;10.014;2022-12-20T05:14:58;7.80;;;5.00;;
29362;SDS011;16349;53.672;10.014;2022-12-20T05:17:25;5.83;;;5.33;;
29362;SDS011;16349;53.672;10.014;2022-12-20T05:19:52;6.50;;;5.13;;
29362;SDS011;16349;53.672;10.014;2022-12-20T05:22:19;6.83;;;5.47;;
29362;SDS011;16349;53.672;10.014;2022-12-20T05:25:09;6.87;;;5.00;;
29362;SDS011;16349;53.672;10.014;2022-12-20T05:27:57;5.17;;;4.63;;
29362;SDS011;16349;53.672;10.014;2022-12-20T05:30:26;8.17;;;5.23;;
29362;SDS011;16349;53.672;10.014;2022-12-20T05:32:54;6.87;;;5.30;;
29362;SDS011;16349;53.672;10.014;2022-12-20T05:35:21;7.73;;;5.10;;
29362;SDS011;16349;53.672;10.014;2022-12-20T05:37:54;14.13;;;7.57;;
29362;SDS011;16349;53.672;10.014;2022-12-20T05:40:23;7.40;;;5.87;;
29362;SDS011;16349;53.672;10.014;2022-12-20T05:42:49;9.97;;;7.30;;
29362;SDS011;16349;53.672;10.014;2022-12-20T05:45:17;8.27;;;5.77;;
29362;SDS011;16349;53.672;10.014;2022-12-20T05:47:51;6.47;;;5.17;;
29362;SDS011;16349;53.672;10.014;2022-12-20T05:50:18;7.23;;;5.60;;
29362;SDS011;16349;53.672;10.014;2022-12-20T05:53:03;9.30;;;5.10;;
29362;SDS011;16349;53.672;10.014;2022-12-20T05:55:32;8.83;;;5.73;;
29362;SDS011;16349;53.672;10.014;2022-12-20T05:58:00;7.67;;;5.00;;
29362;SDS011;16349;53.672;10.014;2022-12-20T06:00:43;5.47;;;4.90;;
29362;SDS011;16349;53.672;10.014;2022-12-20T06:03:11;10.93;;;7.47;;
29362;SDS011;16349;53.672;10.014;2022-12-20T06:05:40;10.07;;;5.77;;
29362;SDS011;16349;53.672;10.014;2022-12-20T06:08:12;5.47;;;4.60;;
29362;SDS011;16349;53.672;10.014;2022-12-20T06:10:40;6.17;;;5.30;;
29362;SDS011;16349;53.672;10.014;2022-12-20T06:13:07;6.60;;;5.33;;
29362;SDS011;16349;53.672;10.014;2022-12-20T06:15:35;7.83;;;4.77;;
29362;SDS011;16349;53.672;10.014;2022-12-20T06:18:03;9.17;;;6.00;;
29362;SDS011;16349;53.672;10.014;2022-12-20T06:20:30;8.27;;;5.03;;
29362;SDS011;16349;53.672;10.014;2022-12-20T06:22:59;7.33;;;5.77;;
29362;SDS011;16349;53.672;10.014;2022-12-20T06:25:31;7.43;;;4.67;;
29362;SDS011;16349;53.672;10.014;2022-12-20T06:28:00;7.27;;;4.93;;
29362;SDS011;16349;53.672;10.014;2022-12-20T06:30:26;6.53;;;5.23;;
29362;SDS011;16349;53.672;10.014;2022-12-20T06:33:03;7.47;;;5.73;;
29362;SDS011;16349;53.672;10.014;2022-12-20T06:35:30;9.97;;;6.20;;
29362;SDS011;16349;53.672;10.014;2022-12-20T06:37:58;11.30;;;5.43;;
29362;SDS011;16349;53.672;10.014;2022-12-20T06:40:28;8.50;;;5.67;;
29362;SDS011;16349;53.672;10.014;2022-12-20T06:43:00;11.17;;;5.63;;
29362;SDS011;16349;53.672;10.014;2022-12-20T06:45:27;9.00;;;5.00;;
29362;SDS011;16349;53.672;10.014;2022-12-20T06:47:55;9.63;;;5.60;;
29362;SDS011;16349;53.672;10.014;2022-12-20T06:50:23;9.63;;;6.50;;
29362;SDS011;16349;53.672;10.014;2022-12-20T06:52:51;6.30;;;5.10;;
29362;SDS011;16349;53.672;10.014;2022-12-20T06:55:17;7.30;;;5.27;;
29362;SDS011;16349;53.672;10.014;2022-12-20T06:57:45;6.43;;;4.90;;
29362;SDS011;16349;53.672;10.014;2022-12-20T07:00:14;11.83;;;7.60;;
29362;SDS011;16349;53.672;10.014;2022-12-20T07:02:42;5.40;;;4.53;;
29362;SDS011;16349;53.672;10.014;2022-12-20T07:05:09;8.10;;;5.37;;
29362;SDS011;16349;53.672;10.014;2022-12-20T07:07:36;6.53;;;5.00;;
29362;SDS011;16349;53.672;10.014;2022-12-20T07:10:03;8.33;;;5.73;;
29362;SDS011;16349;53.672;10.014;2022-12-20T07:12:31;6.40;;;5.17;;
29362;SDS011;16349;53.672;10.014;2022-12-20T07:14:58;6.27;;;5.13;;
29362;SDS011;16349;53.672;10.014;2022-12-20T07:17:26;9.17;;;6.50;;
29362;SDS011;16349;53.672;10.014;2022-12-20T07:19:53;12.87;;;6.40;;
29362;SDS011;16349;53.672;10.014;2022-12-20T07:22:19;7.80;;;5.83;;
29362;SDS011;16349;53.672;10.014;2022-12-20T07:24:46;8.07;;;5.40;;
29362;SDS011;16349;53.672;10.014;2022-12-20T07:27:14;13.63;;;7.67;;
29362;SDS011;16349;53.672;10.014;2022-12-20T07:29:42;8.53;;;5.53;;
29362;SDS011;16349;53.672;10.014;2022-12-20T07:32:09;9.20;;;6.30;;
29362;SDS011;16349;53.672;10.014;2022-12-20T07:34:39;8.83;;;5.97;;
29362;SDS011;16349;53.672;10.014;2022-12-20T07:37:06;21.77;;;9.23;;
29362;SDS011;16349;53.672;10.014;2022-12-20T07:39:33;9.30;;;6.30;;
29362;SDS011;16349;53.672;10.014;2022-12-20T07:42:00;5.57;;;4.57;;
29362;SDS011;16349;53.672;10.014;2022-12-20T07:44:35;11.07;;;6.87;;
29362;SDS011;16349;53.672;10.014;2022-12-20T07:47:02;9.33;;;6.13;;
29362;SDS011;16349;53.672;10.014;2022-12-20T07:49:29;12.23;;;7.40;;
29362;SDS011;16349;53.672;10.014;2022-12-20T07:51:57;10.70;;;6.07;;
29362;SDS011;16349;53.672;10.014;2022-12-20T07:54:29;10.73;;;6.90;;
29362;SDS011;16349;53.672;10.014;2022-12-20T07:56:58;6.67;;;6.07;;
29362;SDS011;16349;53.672;10.014;2022-12-20T07:59:29;8.17;;;5.60;;
29362;SDS011;16349;53.672;10.014;2022-12-20T08:02:01;10.07;;;6.60;;
29362;SDS011;16349;53.672;10.014;2022-12-20T08:04:28;8.20;;;5.97;;
29362;SDS011;16349;53.672;10.014;2022-12-20T08:06:57;8.07;;;6.20;;
29362;SDS011;16349;53.672;10.014;2022-12-20T08:09:26;7.27;;;6.13;;
29362;SDS011;16349;53.672;10.014;2022-12-20T08:11:56;6.23;;;5.63;;
29362;SDS011;16349;53.672;10.014;2022-12-20T08:14:24;7.50;;;6.10;;
29362;SDS011;16349;53.672;10.014;2022-12-20T08:16:51;7.13;;;5.70;;
29362;SDS011;16349;53.672;10.014;2022-12-20T08:19:18;10.60;;;7.13;;
29362;SDS011;16349;53.672;10.014;2022-12-20T08:21:45;10.47;;;6.70;;
29362;SDS011;16349;53.672;10.014;2022-12-20T08:24:15;9.67;;;6.33;;
29362;SDS011;16349;53.672;10.014;2022-12-20T08:26:42;10.93;;;6.50;;
29362;SDS011;16349;53.672;10.014;2022-12-20T08:29:08;5.83;;;5.23;;
29362;SDS011;16349;53.672;10.014;2022-12-20T08:31:36;8.50;;;5.73;;
29362;SDS011;16349;53.672;10.014;2022-12-20T08:34:02;5.73;;;5.20;;
29362;SDS011;16349;53.672;10.014;2022-12-20T08:36:29;10.03;;;6.40;;
29362;SDS011;16349;53.672;10.014;2022-12-20T08:38:56;6.57;;;5.60;;
29362;SDS011;16349;53.672;10.014;2022-12-20T08:41:24;7.80;;;5.93;;
29362;SDS011;16349;53.672;10.014;2022-12-20T08:43:51;8.50;;;6.77;;
29362;SDS011;16349;53.672;10.014;2022-12-20T08:46:18;6.10;;;5.13;;
29362;SDS011;16349;53.672;10.014;2022-12-20T08:48:45;7.33;;;5.70;;
29362;SDS011;16349;53.672;10.014;2022-12-20T08:51:11;7.00;;;4.53;;
29362;SDS011;16349;53.672;10.014;2022-12-20T08:53:38;10.87;;;5.90;;
29362;SDS011;16349;53.672;10.014;2022-12-20T08:56:05;8.17;;;5.50;;
29362;SDS011;16349;53.672;10.014;2022-12-20T08:58:35;6.67;;;4.50;;
29362;SDS011;16349;53.672;10.014;2022-12-20T09:01:02;5.67;;;4.70;;
29362;SDS011;16349;53.672;10.014;2022-12-20T09:03:32;5.93;;;4.50;;
29362;SDS011;16349;53.672;10.014;2022-12-20T09:05:59;5.57;;;4.40;;
29362;SDS011;16349;53.672;10.014;2022-12-20T09:08:26;7.07;;;4.97;;
29362;SDS011;16349;53.672;10.014;2022-12-20T09:10:53;7.90;;;5.10;;
29362;SDS011;16349;53.672;10.014;2022-12-20T09:13:28;5.20;;;4.63;;
29362;SDS011;16349;53.672;10.014;2022-12-20T09:15:56;6.93;;;5.13;;
29362;SDS011;16349;53.672;10.014;2022-12-20T09:18:26;7.37;;;4.03;;
29362;SDS011;16349;53.672;10.014;2022-12-20T09:20:52;5.87;;;4.70;;
29362;SDS011;16349;53.672;10.014;2022-12-20T09:23:19;7.70;;;4.57;;
29362;SDS011;16349;53.672;10.014;2022-12-20T09:25:46;7.17;;;5.13;;
29362;SDS011;16349;53.672;10.014;2022-12-20T09:28:13;8.20;;;5.67;;
29362;SDS011;16349;53.672;10.014;2022-12-20T09:30:40;9.40;;;4.93;;
29362;SDS011;16349;53.672;10.014;2022-12-20T09:33:08;5.97;;;4.63;;
29362;SDS011;16349;53.672;10.014;2022-12-20T09:35:35;5.93;;;4.73;;
29362;SDS011;16349;53.672;10.014;2022-12-20T09:38:02;7.80;;;5.27;;
29362;SDS011;16349;53.672;10.014;2022-12-20T09:40:30;6.43;;;5.10;;
29362;SDS011;16349;53.672;10.014;2022-12-20T09:42:57;9.27;;;5.57;;
29362;SDS011;16349;53.672;10.014;2022-12-20T09:45:26;9.97;;;5.70;;
29362;SDS011;16349;53.672;10.014;2022-12-20T09:47:55;6.33;;;5.50;;
29362;SDS011;16349;53.672;10.014;2022-12-20T09:50:27;8.90;;;6.30;;
29362;SDS011;16349;53.672;10.014;2022-12-20T09:53:12;6.17;;;4.93;;
29362;SDS011;16349;53.672;10.014;2022-12-20T09:55:49;7.23;;;5.60;;
29362;SDS011;16349;53.672;10.014;2022-12-20T09:58:22;7.83;;;5.03;;
29362;SDS011;16349;53.672;10.014;2022-12-20T10:00:57;5.83;;;5.00;;
29362;SDS011;16349;53.672;10.014;2022-12-20T10:03:31;6.77;;;5.20;;
29362;SDS011;16349;53.672;10.014;2022-12-20T10:06:03;8.20;;;5.43;;
29362;SDS011;16349;53.672;10.014;2022-12-20T10:08:42;14.73;;;6.87;;
29362;SDS011;16349;53.672;10.014;2022-12-20T10:11:12;11.20;;;7.47;;
29362;SDS011;16349;53.672;10.014;2022-12-20T10:13:55;8.93;;;6.10;;
29362;SDS011;16349;53.672;10.014;2022-12-20T10:16:35;7.07;;;5.90;;
29362;SDS011;16349;53.672;10.014;2022-12-20T10:19:12;6.73;;;5.93;;
29362;SDS011;16349;53.672;10.014;2022-12-20T10:21:54;8.07;;;6.10;;
29362;SDS011;16349;53.672;10.014;2022-12-20T10:24:29;13.40;;;8.50;;
29362;SDS011;16349;53.672;10.014;2022-12-20T10:26:57;9.03;;;6.30;;
29362;SDS011;16349;53.672;10.014;2022-12-20T10:29:32;7.93;;;5.73;;
29362;SDS011;16349;53.672;10.014;2022-12-20T10:31:59;11.93;;;6.97;;
29362;SDS011;16349;53.672;10.014;2022-12-20T10:34:27;8.13;;;5.80;;
29362;SDS011;16349;53.672;10.014;2022-12-20T10:39:48;8.33;;;6.53;;
29362;SDS011;16349;53.672;10.014;2022-12-20T10:42:23;11.57;;;6.97;;
29362;SDS011;16349;53.672;10.014;2022-12-20T10:44:59;11.60;;;6.13;;
29362;SDS011;16349;53.672;10.014;2022-12-20T10:47:30;8.17;;;6.70;;
29362;SDS011;16349;53.672;10.014;2022-12-20T10:50:13;7.63;;;5.67;;
29362;SDS011;16349;53.672;10.014;2022-12-20T10:52:43;8.63;;;5.87;;
29362;SDS011;16349;53.672;10.014;2022-12-20T10:58:01;6.90;;;5.60;;
29362;SDS011;16349;53.672;10.014;2022-12-20T11:00:30;7.03;;;5.40;;
29362;SDS011;16349;53.672;10.014;2022-12-20T11:03:02;10.00;;;5.83;;
29362;SDS011;16349;53.672;10.014;2022-12-20T11:05:32;7.23;;;5.50;;
29362;SDS011;16349;53.672;10.014;2022-12-20T11:08:05;7.23;;;4.97;;
29362;SDS011;16349;53.672;10.014;2022-12-20T11:10:39;7.00;;;4.27;;
29362;SDS011;16349;53.672;10.014;2022-12-20T11:13:09;7.10;;;4.63;;
29362;SDS011;16349;53.672;10.014;2022-12-20T11:15:47;5.63;;;4.07;;
29362;SDS011;16349;53.672;10.014;2022-12-20T11:18:17;4.37;;;4.03;;
29362;SDS011;16349;53.672;10.014;2022-12-20T11:20:50;6.20;;;4.43;;
29362;SDS011;16349;53.672;10.014;2022-12-20T11:23:30;4.17;;;3.70;;
29362;SDS011;16349;53.672;10.014;2022-12-20T11:26:10;5.00;;;4.50;;
29362;SDS011;16349;53.672;10.014;2022-12-20T11:28:51;5.43;;;3.80;;
29362;SDS011;16349;53.672;10.014;2022-12-20T11:31:35;7.93;;;5.40;;
29362;SDS011;16349;53.672;10.014;2022-12-20T11:34:15;3.13;;;2.90;;
29362;SDS011;16349;53.672;10.014;2022-12-20T11:36:53;7.70;;;5.70;;
29362;SDS011;16349;53.672;10.014;2022-12-20T11:39:31;5.43;;;3.40;;
29362;SDS011;16349;53.672;10.014;2022-12-20T11:42:07;4.27;;;3.60;;
29362;SDS011;16349;53.672;10.014;2022-12-20T11:44:45;7.03;;;4.27;;
29362;SDS011;16349;53.672;10.014;2022-12-20T11:47:24;4.67;;;4.27;;
29362;SDS011;16349;53.672;10.014;2022-12-20T11:50:12;4.57;;;4.17;;
29362;SDS011;16349;53.672;10.014;2022-12-20T11:53:00;4.17;;;3.43;;
29362;SDS011;16349;53.672;10.014;2022-12-20T11:55:33;7.03;;;4.97;;
29362;SDS011;16349;53.672;10.014;2022-12-20T11:58:09;6.93;;;3.83;;
29362;SDS011;16349;53.672;10.014;2022-12-20T12:00:42;4.27;;;3.70;;
29362;SDS011;16349;53.672;10.014;2022-12-20T12:03:17;4.13;;;3.73;;
29362;SDS011;16349;53.672;10.014;2022-12-20T12:05:51;4.67;;;4.00;;
29362;SDS011;16349;53.672;10.014;2022-12-20T12:08:22;4.53;;;3.90;;
29362;SDS011;16349;53.672;10.014;2022-12-20T12:10:55;5.73;;;4.50;;
29362;SDS011;16349;53.672;10.014;2022-12-20T12:13:26;4.67;;;4.10;;
29362;SDS011;16349;53.672;10.014;2022-12-20T12:15:59;6.47;;;4.70;;
29362;SDS011;16349;53.672;10.014;2022-12-20T12:18:30;5.13;;;4.13;;
29362;SDS011;16349;53.672;10.014;2022-12-20T12:21:00;4.87;;;4.07;;
29362;SDS011;16349;53.672;10.014;2022-12-20T12:23:34;5.73;;;4.20;;
29362;SDS011;16349;53.672;10.014;2022-12-20T12:26:09;8.50;;;4.67;;
29362;SDS011;16349;53.672;10.014;2022-12-20T12:28:39;5.47;;;4.47;;
29362;SDS011;16349;53.672;10.014;2022-12-20T12:31:07;7.23;;;4.43;;
29362;SDS011;16349;53.672;10.014;2022-12-20T12:33:39;7.33;;;4.40;;
29362;SDS011;16349;53.672;10.014;2022-12-20T12:36:17;6.53;;;4.00;;
29362;SDS011;16349;53.672;10.014;2022-12-20T12:39:18;5.43;;;4.03;;
29362;SDS011;16349;53.672;10.014;2022-12-20T12:42:06;4.40;;;4.00;;
29362;SDS011;16349;53.672;10.014;2022-12-20T12:44:47;6.30;;;4.70;;
29362;SDS011;16349;53.672;10.014;2022-12-20T12:47:18;7.53;;;4.83;;
29362;SDS011;16349;53.672;10.014;2022-12-20T12:49:49;5.70;;;4.40;;
29362;SDS011;16349;53.672;10.014;2022-12-20T12:58:11;7.73;;;5.63;;
29362;SDS011;16349;53.672;10.014;2022-12-20T13:00:55;4.97;;;4.47;;
29362;SDS011;16349;53.672;10.014;2022-12-20T13:03:36;5.67;;;4.40;;
29362;SDS011;16349;53.672;10.014;2022-12-20T13:09:19;8.17;;;5.33;;
29362;SDS011;16349;53.672;10.014;2022-12-20T13:12:01;7.90;;;5.17;;
29362;SDS011;16349;53.672;10.014;2022-12-20T13:18:25;8.60;;;7.10;;
29362;SDS011;16349;53.672;10.014;2022-12-20T13:27:12;7.83;;;5.27;;
29362;SDS011;16349;53.672;10.014;2022-12-20T13:32:58;10.90;;;5.20;;
29362;SDS011;16349;53.672;10.014;2022-12-20T13:35:59;7.33;;;4.83;;
29362;SDS011;16349;53.672;10.014;2022-12-20T13:38:39;5.40;;;4.57;;
29362;SDS011;16349;53.672;10.014;2022-12-20T13:44:17;9.47;;;6.17;;
29362;SDS011;16349;53.672;10.014;2022-12-20T13:46:55;7.73;;;5.17;;
29362;SDS011;16349;53.672;10.014;2022-12-20T13:49:28;8.70;;;6.00;;
29362;SDS011;16349;53.672;10.014;2022-12-20T13:52:06;8.07;;;6.80;;
29362;SDS011;16349;53.672;10.014;2022-12-20T13:54:48;9.10;;;6.23;;
29362;SDS011;16349;53.672;10.014;2022-12-20T13:57:19;13.00;;;6.83;;
29362;SDS011;16349;53.672;10.014;2022-12-20T13:59:52;10.43;;;6.63;;
29362;SDS011;16349;53.672;10.014;2022-12-20T14:02:22;7.63;;;5.67;;
29362;SDS011;16349;53.672;10.014;2022-12-20T14:04:54;7.90;;;6.07;;
29362;SDS011;16349;53.672;10.014;2022-12-20T14:07:24;11.90;;;7.70;;
29362;SDS011;16349;53.672;10.014;2022-12-20T14:09:55;11.50;;;7.60;;
29362;SDS011;16349;53.672;10.014;2022-12-20T14:12:22;9.20;;;5.97;;
29362;SDS011;16349;53.672;10.014;2022-12-20T14:14:50;8.77;;;7.70;;
29362;SDS011;16349;53.672;10.014;2022-12-20T14:17:19;8.83;;;6.70;;
29362;SDS011;16349;53.672;10.014;2022-12-20T14:20:02;10.70;;;7.60;;
29362;SDS011;16349;53.672;10.014;2022-12-20T14:22:31;12.47;;;7.13;;
29362;SDS011;16349;53.672;10.014;2022-12-20T14:24:59;14.43;;;7.90;;
29362;SDS011;16349;53.672;10.014;2022-12-20T14:27:27;9.70;;;6.57;;
29362;SDS011;16349;53.672;10.014;2022-12-20T14:29:58;16.90;;;7.57;;
29362;SDS011;16349;53.672;10.014;2022-12-20T14:32:25;12.97;;;8.90;;
29362;SDS011;16349;53.672;10.014;2022-12-20T14:35:18;10.00;;;7.27;;
29362;SDS011;16349;53.672;10.014;2022-12-20T14:37:51;14.60;;;8.97;;
29362;SDS011;16349;53.672;10.014;2022-12-20T14:40:18;11.13;;;8.40;;
29362;SDS011;16349;53.672;10.014;2022-12-20T14:42:46;8.80;;;7.90;;
29362;SDS011;16349;53.672;10.014;2022-12-20T14:45:15;12.20;;;9.23;;
29362;SDS011;16349;53.672;10.014;2022-12-20T14:47:48;20.10;;;9.10;;
29362;SDS011;16349;53.672;10.014;2022-12-20T14:50:21;8.67;;;5.90;;
29362;SDS011;16349;53.672;10.014;2022-12-20T14:52:52;10.67;;;8.77;;
29362;SDS011;16349;53.672;10.014;2022-12-20T14:55:21;8.70;;;6.40;;
29362;SDS011;16349;53.672;10.014;2022-12-20T14:57:51;18.07;;;8.60;;
29362;SDS011;16349;53.672;10.014;2022-12-20T15:00:20;11.40;;;7.10;;
29362;SDS011;16349;53.672;10.014;2022-12-20T15:02:55;14.00;;;8.77;;
29362;SDS011;16349;53.672;10.014;2022-12-20T15:08:21;11.70;;;7.20;;
29362;SDS011;16349;53.672;10.014;2022-12-20T15:10:55;14.63;;;7.70;;
29362;SDS011;16349;53.672;10.014;2022-12-20T15:13:27;23.40;;;9.73;;
29362;SDS011;16349;53.672;10.014;2022-12-20T15:15:57;23.00;;;9.30;;
29362;SDS011;16349;53.672;10.014;2022-12-20T15:18:28;10.83;;;7.23;;
29362;SDS011;16349;53.672;10.014;2022-12-20T15:21:02;16.07;;;8.90;;
29362;SDS011;16349;53.672;10.014;2022-12-20T15:23:30;11.70;;;7.30;;
29362;SDS011;16349;53.672;10.014;2022-12-20T15:25:57;19.67;;;9.40;;
29362;SDS011;16349;53.672;10.014;2022-12-20T15:28:24;11.27;;;7.37;;
29362;SDS011;16349;53.672;10.014;2022-12-20T15:30:52;11.57;;;7.70;;